sensor_id;sensor_type;location;lat;lon;timestamp;temperature;humidity
7194;DHT22;3638;48.820;9.244;2022-08-11T00:02:31;20.70;56.60
7194;DHT22;3638;48.820;9.244;2022-08-11T00:05:04;20.70;56.60
7194;DHT22;3638;48.820;9.244;2022-08-11T00:07:42;20.80;56.60
7194;DHT22;3638;48.820;9.244;2022-08-11T00:10:11;20.80;56.70
7194;DHT22;3638;48.820;9.244;2022-08-11T00:12:42;20.70;56.50
7194;DHT22;3638;48.820;9.244;2022-08-11T00:15:10;20.70;56.50
7194;DHT22;3638;48.820;9.244;2022-08-11T00:17:38;20.70;56.40
7194;DHT22;3638;48.820;9.244;2022-08-11T00:20:08;20.70;56.40
7194;DHT22;3638;48.820;9.244;2022-08-11T00:22:38;20.70;56.60
7194;DHT22;3638;48.820;9.244;2022-08-11T00:25:08;20.70;56.70
7194;DHT22;3638;48.820;9.244;2022-08-11T00:27:37;20.70;56.50
7194;DHT22;3638;48.820;9.244;2022-08-11T00:30:08;20.70;56.60
7194;DHT22;3638;48.820;9.244;2022-08-11T00:32:37;20.70;56.80
7194;DHT22;3638;48.820;9.244;2022-08-11T00:35:08;20.60;56.80
7194;DHT22;3638;48.820;9.244;2022-08-11T00:37:38;20.60;57.00
7194;DHT22;3638;48.820;9.244;2022-08-11T00:40:14;20.60;57.20
7194;DHT22;3638;48.820;9.244;2022-08-11T00:42:51;20.40;57.50
7194;DHT22;3638;48.820;9.244;2022-08-11T00:45:28;20.30;57.90
7194;DHT22;3638;48.820;9.244;2022-08-11T00:48:04;20.10;58.50
7194;DHT22;3638;48.820;9.244;2022-08-11T00:50:43;19.90;58.70
7194;DHT22;3638;48.820;9.244;2022-08-11T00:53:31;19.80;59.50
7194;DHT22;3638;48.820;9.244;2022-08-11T00:56:42;19.70;59.80
7194;DHT22;3638;48.820;9.244;2022-08-11T01:00:02;19.60;60.10
7194;DHT22;3638;48.820;9.244;2022-08-11T01:02:46;19.50;60.50
7194;DHT22;3638;48.820;9.244;2022-08-11T01:09:11;19.50;61.70
7194;DHT22;3638;48.820;9.244;2022-08-11T01:12:00;19.40;62.50
7194;DHT22;3638;48.820;9.244;2022-08-11T01:15:13;19.00;64.00
7194;DHT22;3638;48.820;9.244;2022-08-11T01:21:45;18.30;67.20
7194;DHT22;3638;48.820;9.244;2022-08-11T01:31:46;18.30;68.30
7194;DHT22;3638;48.820;9.244;2022-08-11T01:38:18;18.10;69.10
7194;DHT22;3638;48.820;9.244;2022-08-11T01:41:18;17.90;69.50
7194;DHT22;3638;48.820;9.244;2022-08-11T01:47:30;17.80;70.20
7194;DHT22;3638;48.820;9.244;2022-08-11T01:50:23;17.80;70.30
7194;DHT22;3638;48.820;9.244;2022-08-11T01:53:09;17.70;70.50
7194;DHT22;3638;48.820;9.244;2022-08-11T01:55:48;17.70;71.40
7194;DHT22;3638;48.820;9.244;2022-08-11T01:58:28;17.60;71.00
7194;DHT22;3638;48.820;9.244;2022-08-11T02:01:01;17.50;71.90
7194;DHT22;3638;48.820;9.244;2022-08-11T02:03:54;17.50;72.40
7194;DHT22;3638;48.820;9.244;2022-08-11T02:06:29;17.40;73.20
7194;DHT22;3638;48.820;9.244;2022-08-11T02:09:25;17.50;73.50
7194;DHT22;3638;48.820;9.244;2022-08-11T02:12:13;17.50;73.00
7194;DHT22;3638;48.820;9.244;2022-08-11T02:14:42;17.40;73.20
7194;DHT22;3638;48.820;9.244;2022-08-11T02:17:18;17.50;72.70
7194;DHT22;3638;48.820;9.244;2022-08-11T02:19:54;17.40;72.90
7194;DHT22;3638;48.820;9.244;2022-08-11T02:22:50;17.30;73.20
7194;DHT22;3638;48.820;9.244;2022-08-11T02:25:56;17.40;73.70
7194;DHT22;3638;48.820;9.244;2022-08-11T02:28:34;17.30;73.70
7194;DHT22;3638;48.820;9.244;2022-08-11T02:31:24;17.40;73.50
7194;DHT22;3638;48.820;9.244;2022-08-11T02:34:33;17.40;73.30
7194;DHT22;3638;48.820;9.244;2022-08-11T02:37:13;17.30;73.70
7194;DHT22;3638;48.820;9.244;2022-08-11T02:39:51;17.30;74.40
7194;DHT22;3638;48.820;9.244;2022-08-11T02:42:31;17.10;74.60
7194;DHT22;3638;48.820;9.244;2022-08-11T02:45:17;16.90;75.90
7194;DHT22;3638;48.820;9.244;2022-08-11T02:48:02;16.80;76.10
7194;DHT22;3638;48.820;9.244;2022-08-11T02:51:00;16.80;76.20
7194;DHT22;3638;48.820;9.244;2022-08-11T02:53:38;16.80;76.90
7194;DHT22;3638;48.820;9.244;2022-08-11T02:56:15;16.70;77.20
7194;DHT22;3638;48.820;9.244;2022-08-11T02:58:54;16.60;77.60
7194;DHT22;3638;48.820;9.244;2022-08-11T03:01:47;16.60;78.00
7194;DHT22;3638;48.820;9.244;2022-08-11T03:04:21;16.60;78.50
7194;DHT22;3638;48.820;9.244;2022-08-11T03:07:03;16.50;79.00
7194;DHT22;3638;48.820;9.244;2022-08-11T03:09:43;16.50;79.50
7194;DHT22;3638;48.820;9.244;2022-08-11T03:12:17;16.50;79.90
7194;DHT22;3638;48.820;9.244;2022-08-11T03:18:30;16.80;79.30
7194;DHT22;3638;48.820;9.244;2022-08-11T03:21:06;16.60;79.80
7194;DHT22;3638;48.820;9.244;2022-08-11T03:23:40;16.60;80.50
7194;DHT22;3638;48.820;9.244;2022-08-11T03:26:22;16.70;80.30
7194;DHT22;3638;48.820;9.244;2022-08-11T03:29:03;16.60;80.40
7194;DHT22;3638;48.820;9.244;2022-08-11T03:31:36;16.40;81.70
7194;DHT22;3638;48.820;9.244;2022-08-11T03:34:15;16.30;82.70
7194;DHT22;3638;48.820;9.244;2022-08-11T03:40:12;16.10;84.00
7194;DHT22;3638;48.820;9.244;2022-08-11T03:43:12;16.10;84.70
7194;DHT22;3638;48.820;9.244;2022-08-11T03:45:56;16.30;84.20
7194;DHT22;3638;48.820;9.244;2022-08-11T03:48:39;16.40;83.60
7194;DHT22;3638;48.820;9.244;2022-08-11T03:51:18;16.40;83.60
7194;DHT22;3638;48.820;9.244;2022-08-11T03:54:09;16.50;83.60
7194;DHT22;3638;48.820;9.244;2022-08-11T04:03:56;16.10;85.60
7194;DHT22;3638;48.820;9.244;2022-08-11T04:06:52;16.10;86.60
7194;DHT22;3638;48.820;9.244;2022-08-11T04:13:19;15.80;88.60
7194;DHT22;3638;48.820;9.244;2022-08-11T04:16:38;15.80;89.00
7194;DHT22;3638;48.820;9.244;2022-08-11T04:19:46;15.70;89.40
7194;DHT22;3638;48.820;9.244;2022-08-11T04:22:52;15.70;89.30
7194;DHT22;3638;48.820;9.244;2022-08-11T04:25:55;15.80;89.40
7194;DHT22;3638;48.820;9.244;2022-08-11T04:29:02;15.70;90.00
7194;DHT22;3638;48.820;9.244;2022-08-11T04:31:37;15.60;90.20
7194;DHT22;3638;48.820;9.244;2022-08-11T04:34:40;15.70;90.40
7194;DHT22;3638;48.820;9.244;2022-08-11T04:37:40;15.60;90.60
7194;DHT22;3638;48.820;9.244;2022-08-11T04:44:17;15.50;91.10
7194;DHT22;3638;48.820;9.244;2022-08-11T04:47:16;15.50;91.30
7194;DHT22;3638;48.820;9.244;2022-08-11T04:50:23;15.50;91.70
7194;DHT22;3638;48.820;9.244;2022-08-11T04:53:27;15.60;91.30
7194;DHT22;3638;48.820;9.244;2022-08-11T04:56:21;15.70;90.90
7194;DHT22;3638;48.820;9.244;2022-08-11T04:59:39;15.90;90.60
7194;DHT22;3638;48.820;9.244;2022-08-11T05:06:28;16.20;90.20
7194;DHT22;3638;48.820;9.244;2022-08-11T05:09:45;16.50;90.00
7194;DHT22;3638;48.820;9.244;2022-08-11T05:12:34;16.70;89.00
7194;DHT22;3638;48.820;9.244;2022-08-11T05:15:03;17.00;88.20
7194;DHT22;3638;48.820;9.244;2022-08-11T05:17:56;17.20;88.00
7194;DHT22;3638;48.820;9.244;2022-08-11T05:20:48;17.50;87.30
7194;DHT22;3638;48.820;9.244;2022-08-11T05:23:48;17.70;86.20
7194;DHT22;3638;48.820;9.244;2022-08-11T05:26:43;17.90;85.60
7194;DHT22;3638;48.820;9.244;2022-08-11T05:29:40;18.10;84.80
7194;DHT22;3638;48.820;9.244;2022-08-11T05:32:33;18.20;84.60
7194;DHT22;3638;48.820;9.244;2022-08-11T05:35:26;18.50;84.60
7194;DHT22;3638;48.820;9.244;2022-08-11T05:37:56;18.60;83.00
7194;DHT22;3638;48.820;9.244;2022-08-11T05:40:48;18.80;82.70
7194;DHT22;3638;48.820;9.244;2022-08-11T05:43:39;19.10;80.00
7194;DHT22;3638;48.820;9.244;2022-08-11T05:46:27;19.50;78.10
7194;DHT22;3638;48.820;9.244;2022-08-11T05:49:12;19.60;76.20
7194;DHT22;3638;48.820;9.244;2022-08-11T05:51:58;19.70;76.40
7194;DHT22;3638;48.820;9.244;2022-08-11T05:54:43;19.90;76.00
7194;DHT22;3638;48.820;9.244;2022-08-11T05:57:32;20.00;74.40
7194;DHT22;3638;48.820;9.244;2022-08-11T06:00:06;20.00;74.80
7194;DHT22;3638;48.820;9.244;2022-08-11T06:02:40;20.20;73.50
7194;DHT22;3638;48.820;9.244;2022-08-11T06:05:08;20.40;73.80
7194;DHT22;3638;48.820;9.244;2022-08-11T06:07:36;20.50;72.60
7194;DHT22;3638;48.820;9.244;2022-08-11T06:10:05;20.60;72.20
7194;DHT22;3638;48.820;9.244;2022-08-11T06:12:34;20.70;71.90
7194;DHT22;3638;48.820;9.244;2022-08-11T06:15:04;21.00;71.80
7194;DHT22;3638;48.820;9.244;2022-08-11T06:17:35;21.30;70.30
7194;DHT22;3638;48.820;9.244;2022-08-11T06:20:10;21.60;67.90
7194;DHT22;3638;48.820;9.244;2022-08-11T06:22:39;21.70;67.80
7194;DHT22;3638;48.820;9.244;2022-08-11T06:25:09;21.80;67.20
7194;DHT22;3638;48.820;9.244;2022-08-11T06:27:40;22.10;67.60
7194;DHT22;3638;48.820;9.244;2022-08-11T06:30:09;22.60;66.30
7194;DHT22;3638;48.820;9.244;2022-08-11T06:32:42;23.20;64.80
7194;DHT22;3638;48.820;9.244;2022-08-11T06:35:18;23.40;63.50
7194;DHT22;3638;48.820;9.244;2022-08-11T06:38:02;23.50;64.00
7194;DHT22;3638;48.820;9.244;2022-08-11T06:40:46;23.80;60.80
7194;DHT22;3638;48.820;9.244;2022-08-11T06:43:46;23.90;60.40
7194;DHT22;3638;48.820;9.244;2022-08-11T06:46:22;23.90;58.80
7194;DHT22;3638;48.820;9.244;2022-08-11T06:48:53;23.90;59.40
7194;DHT22;3638;48.820;9.244;2022-08-11T06:51:21;24.20;59.00
7194;DHT22;3638;48.820;9.244;2022-08-11T06:53:49;24.10;59.00
7194;DHT22;3638;48.820;9.244;2022-08-11T06:56:22;24.40;58.10
7194;DHT22;3638;48.820;9.244;2022-08-11T06:59:11;24.70;57.30
7194;DHT22;3638;48.820;9.244;2022-08-11T07:02:02;24.70;57.10
7194;DHT22;3638;48.820;9.244;2022-08-11T07:04:39;25.00;56.50
7194;DHT22;3638;48.820;9.244;2022-08-11T07:10:52;25.00;55.80
7194;DHT22;3638;48.820;9.244;2022-08-11T07:13:59;25.20;56.30
7194;DHT22;3638;48.820;9.244;2022-08-11T07:16:48;25.50;56.20
7194;DHT22;3638;48.820;9.244;2022-08-11T07:19:19;25.50;55.20
7194;DHT22;3638;48.820;9.244;2022-08-11T07:22:06;25.50;55.90
7194;DHT22;3638;48.820;9.244;2022-08-11T07:24:57;25.50;55.50
7194;DHT22;3638;48.820;9.244;2022-08-11T07:27:46;25.50;55.60
7194;DHT22;3638;48.820;9.244;2022-08-11T07:30:46;25.60;54.50
7194;DHT22;3638;48.820;9.244;2022-08-11T07:33:21;25.90;55.20
7194;DHT22;3638;48.820;9.244;2022-08-11T07:35:55;26.00;54.00
7194;DHT22;3638;48.820;9.244;2022-08-11T07:38:25;26.00;53.10
7194;DHT22;3638;48.820;9.244;2022-08-11T07:41:08;25.60;55.20
7194;DHT22;3638;48.820;9.244;2022-08-11T07:43:36;25.60;54.20
7194;DHT22;3638;48.820;9.244;2022-08-11T07:46:05;26.00;54.30
7194;DHT22;3638;48.820;9.244;2022-08-11T07:48:52;26.20;53.50
7194;DHT22;3638;48.820;9.244;2022-08-11T07:51:38;26.00;53.70
7194;DHT22;3638;48.820;9.244;2022-08-11T07:54:23;26.10;53.80
7194;DHT22;3638;48.820;9.244;2022-08-11T07:56:51;26.40;53.00
7194;DHT22;3638;48.820;9.244;2022-08-11T07:59:19;26.30;53.50
7194;DHT22;3638;48.820;9.244;2022-08-11T08:02:04;26.00;53.60
7194;DHT22;3638;48.820;9.244;2022-08-11T08:04:50;26.00;53.30
7194;DHT22;3638;48.820;9.244;2022-08-11T08:07:36;25.90;54.70
7194;DHT22;3638;48.820;9.244;2022-08-11T08:10:21;26.30;53.30
7194;DHT22;3638;48.820;9.244;2022-08-11T08:13:06;26.60;51.70
7194;DHT22;3638;48.820;9.244;2022-08-11T08:15:52;26.90;52.20
7194;DHT22;3638;48.820;9.244;2022-08-11T08:18:37;27.30;51.30
7194;DHT22;3638;48.820;9.244;2022-08-11T08:21:06;27.40;50.90
7194;DHT22;3638;48.820;9.244;2022-08-11T08:23:42;27.20;51.70
7194;DHT22;3638;48.820;9.244;2022-08-11T08:26:13;27.50;52.10
7194;DHT22;3638;48.820;9.244;2022-08-11T08:28:56;27.60;50.60
7194;DHT22;3638;48.820;9.244;2022-08-11T08:31:46;27.30;49.40
7194;DHT22;3638;48.820;9.244;2022-08-11T08:34:14;27.30;49.60
7194;DHT22;3638;48.820;9.244;2022-08-11T08:36:43;27.30;50.10
7194;DHT22;3638;48.820;9.244;2022-08-11T08:39:13;27.30;49.50
7194;DHT22;3638;48.820;9.244;2022-08-11T08:41:42;27.10;49.70
7194;DHT22;3638;48.820;9.244;2022-08-11T08:44:12;27.30;49.00
7194;DHT22;3638;48.820;9.244;2022-08-11T08:46:42;27.40;49.40
7194;DHT22;3638;48.820;9.244;2022-08-11T08:49:15;27.60;48.90
7194;DHT22;3638;48.820;9.244;2022-08-11T08:51:50;28.00;48.90
7194;DHT22;3638;48.820;9.244;2022-08-11T08:54:21;28.10;47.90
7194;DHT22;3638;48.820;9.244;2022-08-11T08:56:54;27.90;46.80
7194;DHT22;3638;48.820;9.244;2022-08-11T08:59:24;27.80;46.50
7194;DHT22;3638;48.820;9.244;2022-08-11T09:01:56;27.70;46.30
7194;DHT22;3638;48.820;9.244;2022-08-11T09:04:26;27.60;47.00
7194;DHT22;3638;48.820;9.244;2022-08-11T09:06:58;27.50;47.00
7194;DHT22;3638;48.820;9.244;2022-08-11T09:09:27;27.70;47.20
7194;DHT22;3638;48.820;9.244;2022-08-11T09:11:56;27.90;46.20
7194;DHT22;3638;48.820;9.244;2022-08-11T09:14:26;28.10;45.70
7194;DHT22;3638;48.820;9.244;2022-08-11T09:17:14;28.00;45.70
7194;DHT22;3638;48.820;9.244;2022-08-11T09:19:44;28.00;45.90
7194;DHT22;3638;48.820;9.244;2022-08-11T09:22:17;27.90;45.60
7194;DHT22;3638;48.820;9.244;2022-08-11T09:25:02;27.80;44.80
7194;DHT22;3638;48.820;9.244;2022-08-11T09:30:15;27.30;45.90
7194;DHT22;3638;48.820;9.244;2022-08-11T09:32:42;27.50;46.00
7194;DHT22;3638;48.820;9.244;2022-08-11T09:35:10;27.70;45.20
7194;DHT22;3638;48.820;9.244;2022-08-11T09:37:39;27.50;44.50
7194;DHT22;3638;48.820;9.244;2022-08-11T09:40:24;27.60;44.80
7194;DHT22;3638;48.820;9.244;2022-08-11T09:42:58;27.50;44.90
7194;DHT22;3638;48.820;9.244;2022-08-11T09:45:47;27.40;45.00
7194;DHT22;3638;48.820;9.244;2022-08-11T09:48:16;27.50;43.60
7194;DHT22;3638;48.820;9.244;2022-08-11T09:50:45;27.60;44.10
7194;DHT22;3638;48.820;9.244;2022-08-11T09:53:16;27.80;44.30
7194;DHT22;3638;48.820;9.244;2022-08-11T09:55:45;27.80;43.00
7194;DHT22;3638;48.820;9.244;2022-08-11T09:58:12;27.80;42.90
7194;DHT22;3638;48.820;9.244;2022-08-11T10:00:41;27.80;43.30
7194;DHT22;3638;48.820;9.244;2022-08-11T10:03:11;27.80;42.80
7194;DHT22;3638;48.820;9.244;2022-08-11T10:05:44;27.80;42.90
7194;DHT22;3638;48.820;9.244;2022-08-11T10:08:31;27.70;43.40
7194;DHT22;3638;48.820;9.244;2022-08-11T10:11:00;27.60;44.00
7194;DHT22;3638;48.820;9.244;2022-08-11T10:13:30;27.60;44.30
7194;DHT22;3638;48.820;9.244;2022-08-11T10:16:02;27.60;43.30
7194;DHT22;3638;48.820;9.244;2022-08-11T10:18:33;27.70;43.40
7194;DHT22;3638;48.820;9.244;2022-08-11T10:21:16;27.80;42.70
7194;DHT22;3638;48.820;9.244;2022-08-11T10:23:57;27.80;43.80
7194;DHT22;3638;48.820;9.244;2022-08-11T10:26:43;27.80;43.00
7194;DHT22;3638;48.820;9.244;2022-08-11T10:29:20;27.80;42.00
7194;DHT22;3638;48.820;9.244;2022-08-11T10:32:07;28.00;42.70
7194;DHT22;3638;48.820;9.244;2022-08-11T10:34:53;28.10;42.20
7194;DHT22;3638;48.820;9.244;2022-08-11T10:37:22;27.90;43.10
7194;DHT22;3638;48.820;9.244;2022-08-11T10:39:52;27.80;43.10
7194;DHT22;3638;48.820;9.244;2022-08-11T10:42:21;27.90;42.90
7194;DHT22;3638;48.820;9.244;2022-08-11T10:45:07;28.10;43.30
7194;DHT22;3638;48.820;9.244;2022-08-11T10:47:56;28.40;41.20
7194;DHT22;3638;48.820;9.244;2022-08-11T10:50:23;28.50;41.90
7194;DHT22;3638;48.820;9.244;2022-08-11T10:53:10;28.40;41.60
7194;DHT22;3638;48.820;9.244;2022-08-11T10:55:57;28.40;42.20
7194;DHT22;3638;48.820;9.244;2022-08-11T10:58:43;28.00;43.40
7194;DHT22;3638;48.820;9.244;2022-08-11T11:01:14;27.90;42.80
7194;DHT22;3638;48.820;9.244;2022-08-11T11:03:42;28.00;43.70
7194;DHT22;3638;48.820;9.244;2022-08-11T11:06:17;28.20;42.10
7194;DHT22;3638;48.820;9.244;2022-08-11T11:08:52;28.30;40.20
7194;DHT22;3638;48.820;9.244;2022-08-11T11:11:25;28.30;40.90
7194;DHT22;3638;48.820;9.244;2022-08-11T11:14:16;28.30;41.10
7194;DHT22;3638;48.820;9.244;2022-08-11T11:17:04;28.40;41.00
7194;DHT22;3638;48.820;9.244;2022-08-11T11:19:54;28.30;40.40
7194;DHT22;3638;48.820;9.244;2022-08-11T11:22:26;28.30;40.20
7194;DHT22;3638;48.820;9.244;2022-08-11T11:25:14;28.10;40.40
7194;DHT22;3638;48.820;9.244;2022-08-11T11:28:09;28.10;41.00
7194;DHT22;3638;48.820;9.244;2022-08-11T11:30:54;28.30;40.50
7194;DHT22;3638;48.820;9.244;2022-08-11T11:33:39;28.30;40.30
7194;DHT22;3638;48.820;9.244;2022-08-11T11:36:21;28.30;40.20
7194;DHT22;3638;48.820;9.244;2022-08-11T11:38:52;28.40;40.00
7194;DHT22;3638;48.820;9.244;2022-08-11T11:41:21;28.40;39.90
7194;DHT22;3638;48.820;9.244;2022-08-11T11:43:54;28.40;39.80
7194;DHT22;3638;48.820;9.244;2022-08-11T11:46:25;28.40;39.60
7194;DHT22;3638;48.820;9.244;2022-08-11T11:48:53;28.00;39.20
7194;DHT22;3638;48.820;9.244;2022-08-11T11:51:22;28.40;39.60
7194;DHT22;3638;48.820;9.244;2022-08-11T11:53:50;28.40;39.30
7194;DHT22;3638;48.820;9.244;2022-08-11T11:56:18;28.40;40.00
7194;DHT22;3638;48.820;9.244;2022-08-11T11:58:48;28.60;39.50
7194;DHT22;3638;48.820;9.244;2022-08-11T12:01:34;28.70;39.50
7194;DHT22;3638;48.820;9.244;2022-08-11T12:04:03;28.60;38.90
7194;DHT22;3638;48.820;9.244;2022-08-11T12:06:31;28.50;39.20
7194;DHT22;3638;48.820;9.244;2022-08-11T12:08:59;28.50;39.00
7194;DHT22;3638;48.820;9.244;2022-08-11T12:11:27;28.60;39.10
7194;DHT22;3638;48.820;9.244;2022-08-11T12:14:15;28.40;38.30
7194;DHT22;3638;48.820;9.244;2022-08-11T12:16:46;28.40;38.30
7194;DHT22;3638;48.820;9.244;2022-08-11T12:19:15;28.40;38.50
7194;DHT22;3638;48.820;9.244;2022-08-11T12:21:45;28.40;38.30
7194;DHT22;3638;48.820;9.244;2022-08-11T12:24:32;28.50;38.40
7194;DHT22;3638;48.820;9.244;2022-08-11T12:27:18;28.50;38.20
7194;DHT22;3638;48.820;9.244;2022-08-11T12:29:47;28.40;38.20
7194;DHT22;3638;48.820;9.244;2022-08-11T12:32:17;28.40;38.50
7194;DHT22;3638;48.820;9.244;2022-08-11T12:37:13;28.40;38.70
7194;DHT22;3638;48.820;9.244;2022-08-11T12:39:45;28.50;38.60
7194;DHT22;3638;48.820;9.244;2022-08-11T12:42:32;28.60;37.50
7194;DHT22;3638;48.820;9.244;2022-08-11T12:45:23;28.60;37.30
7194;DHT22;3638;48.820;9.244;2022-08-11T12:48:03;28.50;37.10
7194;DHT22;3638;48.820;9.244;2022-08-11T12:50:53;28.50;37.30
7194;DHT22;3638;48.820;9.244;2022-08-11T12:53:44;28.60;37.40
7194;DHT22;3638;48.820;9.244;2022-08-11T12:56:18;28.60;36.60
7194;DHT22;3638;48.820;9.244;2022-08-11T12:59:04;28.50;37.50
7194;DHT22;3638;48.820;9.244;2022-08-11T13:01:49;28.60;37.70
7194;DHT22;3638;48.820;9.244;2022-08-11T13:04:35;28.70;37.30
7194;DHT22;3638;48.820;9.244;2022-08-11T13:07:24;28.80;35.60
7194;DHT22;3638;48.820;9.244;2022-08-11T13:09:52;28.80;36.20
7194;DHT22;3638;48.820;9.244;2022-08-11T13:12:22;28.70;36.30
7194;DHT22;3638;48.820;9.244;2022-08-11T13:15:09;28.50;36.50
7194;DHT22;3638;48.820;9.244;2022-08-11T13:17:38;28.50;36.40
7194;DHT22;3638;48.820;9.244;2022-08-11T13:20:08;28.50;36.20
7194;DHT22;3638;48.820;9.244;2022-08-11T13:22:38;28.50;36.70
7194;DHT22;3638;48.820;9.244;2022-08-11T13:25:10;28.60;37.40
7194;DHT22;3638;48.820;9.244;2022-08-11T13:27:41;28.70;36.70
7194;DHT22;3638;48.820;9.244;2022-08-11T13:30:09;28.80;37.10
7194;DHT22;3638;48.820;9.244;2022-08-11T13:32:54;28.90;35.70
7194;DHT22;3638;48.820;9.244;2022-08-11T13:35:22;28.90;35.70
7194;DHT22;3638;48.820;9.244;2022-08-11T13:37:50;28.90;35.20
7194;DHT22;3638;48.820;9.244;2022-08-11T13:40:19;29.00;35.80
7194;DHT22;3638;48.820;9.244;2022-08-11T13:42:47;29.10;35.20
7194;DHT22;3638;48.820;9.244;2022-08-11T13:45:15;29.10;34.50
7194;DHT22;3638;48.820;9.244;2022-08-11T13:47:42;29.00;35.00
7194;DHT22;3638;48.820;9.244;2022-08-11T13:50:10;28.80;35.60
7194;DHT22;3638;48.820;9.244;2022-08-11T13:52:40;28.90;35.70
7194;DHT22;3638;48.820;9.244;2022-08-11T13:55:10;28.80;35.30
7194;DHT22;3638;48.820;9.244;2022-08-11T13:57:47;28.80;35.40
7194;DHT22;3638;48.820;9.244;2022-08-11T14:00:16;28.80;35.10
7194;DHT22;3638;48.820;9.244;2022-08-11T14:02:44;28.80;36.10
7194;DHT22;3638;48.820;9.244;2022-08-11T14:05:16;28.80;35.20
7194;DHT22;3638;48.820;9.244;2022-08-11T14:07:49;28.90;35.10
7194;DHT22;3638;48.820;9.244;2022-08-11T14:10:19;28.80;35.40
7194;DHT22;3638;48.820;9.244;2022-08-11T14:12:59;28.90;36.10
7194;DHT22;3638;48.820;9.244;2022-08-11T14:15:47;28.90;35.50
7194;DHT22;3638;48.820;9.244;2022-08-11T14:18:18;28.80;34.60
7194;DHT22;3638;48.820;9.244;2022-08-11T14:20:49;28.70;35.40
7194;DHT22;3638;48.820;9.244;2022-08-11T14:23:40;28.80;34.50
7194;DHT22;3638;48.820;9.244;2022-08-11T14:26:09;28.80;34.50
7194;DHT22;3638;48.820;9.244;2022-08-11T14:28:59;28.90;34.90
7194;DHT22;3638;48.820;9.244;2022-08-11T14:31:34;29.40;35.20
7194;DHT22;3638;48.820;9.244;2022-08-11T14:34:05;29.00;34.10
7194;DHT22;3638;48.820;9.244;2022-08-11T14:36:35;28.90;34.00
7194;DHT22;3638;48.820;9.244;2022-08-11T14:39:08;28.90;34.60
7194;DHT22;3638;48.820;9.244;2022-08-11T14:41:38;29.00;34.60
7194;DHT22;3638;48.820;9.244;2022-08-11T14:44:24;28.90;34.50
7194;DHT22;3638;48.820;9.244;2022-08-11T14:47:09;29.00;34.70
7194;DHT22;3638;48.820;9.244;2022-08-11T14:49:40;29.00;34.90
7194;DHT22;3638;48.820;9.244;2022-08-11T14:52:10;29.00;34.80
7194;DHT22;3638;48.820;9.244;2022-08-11T14:54:42;29.10;35.00
7194;DHT22;3638;48.820;9.244;2022-08-11T14:57:28;29.10;34.10
7194;DHT22;3638;48.820;9.244;2022-08-11T14:59:58;29.20;34.40
7194;DHT22;3638;48.820;9.244;2022-08-11T15:02:27;29.20;34.30
7194;DHT22;3638;48.820;9.244;2022-08-11T15:05:12;29.20;34.90
7194;DHT22;3638;48.820;9.244;2022-08-11T15:07:40;29.20;34.60
7194;DHT22;3638;48.820;9.244;2022-08-11T15:10:09;29.20;34.50
7194;DHT22;3638;48.820;9.244;2022-08-11T15:12:39;29.20;34.20
7194;DHT22;3638;48.820;9.244;2022-08-11T15:15:08;29.20;34.40
7194;DHT22;3638;48.820;9.244;2022-08-11T15:17:55;29.20;34.50
7194;DHT22;3638;48.820;9.244;2022-08-11T15:20:25;29.20;33.50
7194;DHT22;3638;48.820;9.244;2022-08-11T15:25:59;29.20;34.10
7194;DHT22;3638;48.820;9.244;2022-08-11T15:28:32;29.20;34.60
7194;DHT22;3638;48.820;9.244;2022-08-11T15:31:21;29.10;34.10
7194;DHT22;3638;48.820;9.244;2022-08-11T15:34:09;29.10;33.70
7194;DHT22;3638;48.820;9.244;2022-08-11T15:36:58;29.00;34.30
7194;DHT22;3638;48.820;9.244;2022-08-11T15:39:47;29.00;34.30
7194;DHT22;3638;48.820;9.244;2022-08-11T15:42:39;29.00;34.60
7194;DHT22;3638;48.820;9.244;2022-08-11T15:45:29;29.10;34.40
7194;DHT22;3638;48.820;9.244;2022-08-11T15:48:25;29.10;34.50
7194;DHT22;3638;48.820;9.244;2022-08-11T15:50:57;29.10;34.60
7194;DHT22;3638;48.820;9.244;2022-08-11T15:53:32;29.10;34.80
7194;DHT22;3638;48.820;9.244;2022-08-11T15:56:02;29.10;34.60
7194;DHT22;3638;48.820;9.244;2022-08-11T15:58:33;29.10;34.50
7194;DHT22;3638;48.820;9.244;2022-08-11T16:01:22;29.10;34.50
7194;DHT22;3638;48.820;9.244;2022-08-11T16:04:13;29.00;35.10
7194;DHT22;3638;48.820;9.244;2022-08-11T16:06:47;29.00;34.80
7194;DHT22;3638;48.820;9.244;2022-08-11T16:09:26;29.00;34.90
7194;DHT22;3638;48.820;9.244;2022-08-11T16:11:59;28.90;35.10
7194;DHT22;3638;48.820;9.244;2022-08-11T16:14:32;28.90;34.60
7194;DHT22;3638;48.820;9.244;2022-08-11T16:17:18;29.00;35.10
7194;DHT22;3638;48.820;9.244;2022-08-11T16:19:49;29.00;35.10
7194;DHT22;3638;48.820;9.244;2022-08-11T16:22:22;28.80;34.90
7194;DHT22;3638;48.820;9.244;2022-08-11T16:24:55;28.80;35.20
7194;DHT22;3638;48.820;9.244;2022-08-11T16:27:23;28.80;35.20
7194;DHT22;3638;48.820;9.244;2022-08-11T16:29:54;28.70;34.60
7194;DHT22;3638;48.820;9.244;2022-08-11T16:32:23;28.70;34.50
7194;DHT22;3638;48.820;9.244;2022-08-11T16:34:54;28.70;34.80
7194;DHT22;3638;48.820;9.244;2022-08-11T16:37:40;28.60;34.90
7194;DHT22;3638;48.820;9.244;2022-08-11T16:40:27;28.70;35.10
7194;DHT22;3638;48.820;9.244;2022-08-11T16:42:55;28.70;35.00
7194;DHT22;3638;48.820;9.244;2022-08-11T16:45:43;28.60;35.00
7194;DHT22;3638;48.820;9.244;2022-08-11T16:48:33;28.60;35.50
7194;DHT22;3638;48.820;9.244;2022-08-11T16:51:02;28.50;35.40
7194;DHT22;3638;48.820;9.244;2022-08-11T16:53:30;28.60;35.70
7194;DHT22;3638;48.820;9.244;2022-08-11T16:55:58;28.60;35.40
7194;DHT22;3638;48.820;9.244;2022-08-11T16:58:29;28.50;35.70
7194;DHT22;3638;48.820;9.244;2022-08-11T17:01:20;28.50;35.60
7194;DHT22;3638;48.820;9.244;2022-08-11T17:03:53;28.50;35.50
7194;DHT22;3638;48.820;9.244;2022-08-11T17:06:44;28.40;35.40
7194;DHT22;3638;48.820;9.244;2022-08-11T17:09:31;28.40;36.00
7194;DHT22;3638;48.820;9.244;2022-08-11T17:12:20;28.30;35.90
7194;DHT22;3638;48.820;9.244;2022-08-11T17:15:10;28.30;36.00
7194;DHT22;3638;48.820;9.244;2022-08-11T17:17:57;28.30;36.20
7194;DHT22;3638;48.820;9.244;2022-08-11T17:20:26;28.30;36.20
7194;DHT22;3638;48.820;9.244;2022-08-11T17:22:54;28.30;35.70
7194;DHT22;3638;48.820;9.244;2022-08-11T17:25:36;28.30;35.90
7194;DHT22;3638;48.820;9.244;2022-08-11T17:28:04;28.30;35.70
7194;DHT22;3638;48.820;9.244;2022-08-11T17:30:33;28.20;36.00
7194;DHT22;3638;48.820;9.244;2022-08-11T17:33:21;28.10;36.00
7194;DHT22;3638;48.820;9.244;2022-08-11T17:36:16;28.10;36.00
7194;DHT22;3638;48.820;9.244;2022-08-11T17:38:44;28.00;36.00
7194;DHT22;3638;48.820;9.244;2022-08-11T17:41:14;28.00;36.30
7194;DHT22;3638;48.820;9.244;2022-08-11T17:43:59;27.90;36.30
7194;DHT22;3638;48.820;9.244;2022-08-11T17:46:45;27.80;36.60
7194;DHT22;3638;48.820;9.244;2022-08-11T17:49:32;27.80;36.90
7194;DHT22;3638;48.820;9.244;2022-08-11T17:52:03;27.60;36.90
7194;DHT22;3638;48.820;9.244;2022-08-11T17:54:50;27.50;37.20
7194;DHT22;3638;48.820;9.244;2022-08-11T17:57:36;27.40;37.50
7194;DHT22;3638;48.820;9.244;2022-08-11T18:00:23;27.40;37.10
7194;DHT22;3638;48.820;9.244;2022-08-11T18:02:51;27.40;37.30
7194;DHT22;3638;48.820;9.244;2022-08-11T18:05:41;27.20;37.50
7194;DHT22;3638;48.820;9.244;2022-08-11T18:08:11;27.20;37.70
7194;DHT22;3638;48.820;9.244;2022-08-11T18:10:58;27.00;37.90
7194;DHT22;3638;48.820;9.244;2022-08-11T18:13:44;27.00;38.10
7194;DHT22;3638;48.820;9.244;2022-08-11T18:22:05;26.60;39.00
7194;DHT22;3638;48.820;9.244;2022-08-11T18:24:54;26.50;39.20
7194;DHT22;3638;48.820;9.244;2022-08-11T18:27:43;26.30;39.50